createdAt,value
2022-09-14T00:01:25.285Z,14.70
2022-09-14T00:04:00.134Z,14.50
2022-09-14T00:06:27.281Z,14.50
2022-09-14T00:08:54.281Z,14.30
2022-09-14T00:11:21.466Z,14.20
2022-09-14T00:13:47.966Z,14.20
2022-09-14T00:16:23.067Z,14.20
2022-09-14T00:18:53.508Z,14.10
2022-09-14T00:21:20.102Z,14.00
2022-09-14T00:23:46.332Z,14.00
2022-09-14T00:26:14.824Z,14.00
2022-09-14T00:28:43.421Z,14.00
2022-09-14T00:31:10.129Z,13.90
2022-09-14T00:33:37.793Z,13.80
2022-09-14T00:36:09.537Z,13.80
2022-09-14T00:38:35.782Z,13.80
2022-09-14T00:41:02.328Z,13.90
2022-09-14T00:43:28.514Z,13.90
2022-09-14T00:45:55.746Z,13.90
2022-09-14T00:48:23.984Z,14.00
2022-09-14T00:50:50.682Z,14.10
2022-09-14T00:53:16.928Z,14.30
2022-09-14T00:55:43.195Z,14.40
2022-09-14T00:58:09.483Z,14.40
2022-09-14T01:00:35.628Z,14.50
2022-09-14T01:03:02.043Z,14.50
2022-09-14T01:05:37.700Z,14.60
2022-09-14T01:08:11.188Z,14.70
2022-09-14T01:10:56.367Z,14.60
2022-09-14T01:14:34.740Z,14.60
2022-09-14T01:17:29.686Z,14.50
2022-09-14T01:20:28.928Z,14.50
2022-09-14T01:28:52.054Z,14.50
2022-09-14T01:31:24.092Z,14.50
2022-09-14T01:33:57.563Z,14.60
2022-09-14T01:36:24.058Z,14.70
2022-09-14T01:38:51.066Z,14.80
2022-09-14T01:41:20.162Z,14.80
2022-09-14T01:43:57.002Z,14.90
2022-09-14T01:46:36.322Z,15.00
2022-09-14T01:50:56.002Z,15.10
2022-09-14T01:53:43.228Z,15.20
2022-09-14T01:56:31.352Z,15.10
2022-09-14T02:00:04.143Z,15.10
2022-09-14T02:02:38.997Z,15.10
2022-09-14T02:05:14.114Z,15.20
2022-09-14T02:07:40.361Z,15.30
2022-09-14T02:10:08.479Z,15.20
2022-09-14T02:12:36.516Z,15.20
2022-09-14T02:15:03.946Z,15.20
2022-09-14T02:17:30.781Z,15.20
2022-09-14T02:19:59.086Z,15.30
2022-09-14T02:22:26.216Z,15.20
2022-09-14T02:24:52.740Z,15.20
2022-09-14T02:27:18.961Z,15.30
2022-09-14T02:29:45.195Z,15.20
2022-09-14T02:35:43.273Z,15.10
2022-09-14T02:38:37.164Z,15.10
2022-09-14T02:41:42.600Z,15.10
2022-09-14T02:51:45.446Z,15.10
2022-09-14T02:54:15.381Z,15.00
2022-09-14T02:56:41.594Z,15.00
2022-09-14T02:59:07.811Z,15.10
2022-09-14T03:01:34.096Z,15.10
2022-09-14T03:04:00.540Z,15.20
2022-09-14T03:06:26.808Z,15.20
2022-09-14T03:08:52.942Z,15.20
2022-09-14T03:11:19.551Z,15.30
2022-09-14T03:13:45.709Z,15.20
2022-09-14T03:16:14.443Z,15.20
2022-09-14T03:18:41.008Z,15.20
2022-09-14T03:21:11.971Z,15.20
2022-09-14T03:23:39.293Z,15.10
2022-09-14T03:26:13.620Z,15.10
2022-09-14T03:28:39.861Z,15.10
2022-09-14T03:31:07.271Z,15.00
2022-09-14T03:33:33.632Z,14.90
2022-09-14T03:35:59.862Z,14.90
2022-09-14T03:38:29.567Z,14.80
2022-09-14T03:40:57.443Z,14.70
2022-09-14T03:43:23.985Z,14.70
2022-09-14T03:45:50.500Z,14.70
2022-09-14T03:48:16.734Z,14.60
2022-09-14T03:50:43.201Z,14.60
2022-09-14T03:53:09.494Z,14.60
2022-09-14T03:55:35.725Z,14.50
2022-09-14T03:58:02.515Z,14.50
2022-09-14T04:00:28.788Z,14.50
2022-09-14T04:02:55.617Z,14.50
2022-09-14T04:05:22.390Z,14.60
2022-09-14T04:07:48.549Z,14.60
2022-09-14T04:10:14.829Z,14.60
2022-09-14T04:12:41.523Z,14.70
2022-09-14T04:15:08.740Z,14.70
2022-09-14T04:17:35.039Z,14.70
2022-09-14T04:20:01.894Z,14.70
2022-09-14T04:22:28.115Z,14.70
2022-09-14T04:24:54.361Z,14.70
2022-09-14T04:27:20.565Z,14.70
2022-09-14T04:29:49.589Z,14.70
2022-09-14T04:32:16.070Z,14.70
2022-09-14T04:34:42.579Z,14.70
2022-09-14T04:37:08.853Z,14.70
2022-09-14T04:39:35.420Z,14.70
2022-09-14T04:42:01.618Z,14.80
2022-09-14T04:44:27.945Z,14.80
2022-09-14T04:46:54.319Z,14.80
2022-09-14T04:49:20.995Z,14.70
2022-09-14T04:51:47.174Z,14.80
2022-09-14T04:54:15.402Z,14.80
2022-09-14T04:56:41.742Z,14.80
2022-09-14T04:59:07.985Z,14.80
2022-09-14T05:01:42.585Z,14.70
2022-09-14T05:04:08.954Z,14.70
2022-09-14T05:06:36.011Z,14.80
2022-09-14T05:09:03.274Z,14.80
2022-09-14T05:11:31.147Z,14.90
2022-09-14T05:13:57.944Z,15.00
2022-09-14T05:16:34.554Z,15.10
2022-09-14T05:19:02.572Z,15.20
2022-09-14T05:21:30.263Z,15.30
2022-09-14T05:23:58.734Z,15.50
2022-09-14T05:26:26.925Z,15.60
2022-09-14T05:28:54.661Z,15.70
2022-09-14T05:31:21.117Z,15.80
2022-09-14T05:33:47.776Z,15.80
2022-09-14T05:36:14.662Z,15.80
2022-09-14T05:38:40.991Z,15.90
2022-09-14T05:41:08.391Z,15.90
2022-09-14T05:43:34.675Z,15.90
2022-09-14T05:46:02.038Z,16.00
2022-09-14T05:48:31.621Z,16.00
2022-09-14T05:51:01.758Z,16.10
2022-09-14T05:53:27.980Z,16.10
2022-09-14T05:56:11.437Z,16.20
2022-09-14T05:58:38.159Z,16.20
2022-09-14T06:01:10.344Z,16.40
2022-09-14T06:03:36.753Z,16.30
2022-09-14T06:06:04.782Z,16.40
2022-09-14T06:08:31.255Z,16.50
2022-09-14T06:11:01.886Z,16.50
2022-09-14T06:13:28.064Z,16.60
2022-09-14T06:15:54.262Z,16.80
2022-09-14T06:18:20.460Z,16.90
2022-09-14T06:20:51.496Z,16.90
2022-09-14T06:23:17.811Z,16.90
2022-09-14T06:25:44.072Z,16.90
2022-09-14T06:28:10.320Z,17.10
2022-09-14T06:30:36.622Z,17.10
2022-09-14T06:33:04.843Z,17.20
2022-09-14T06:35:31.128Z,17.30
2022-09-14T06:37:57.442Z,17.40
2022-09-14T06:40:23.888Z,17.50
2022-09-14T06:42:50.227Z,17.70
2022-09-14T06:45:16.965Z,18.00
2022-09-14T06:47:43.281Z,18.30
2022-09-14T06:50:09.596Z,19.20
2022-09-14T06:52:38.203Z,19.50
2022-09-14T06:55:05.576Z,19.70
2022-09-14T06:57:31.878Z,19.30
2022-09-14T06:59:58.111Z,19.20
2022-09-14T07:02:24.425Z,19.30
2022-09-14T07:04:50.661Z,19.10
2022-09-14T07:07:16.894Z,19.00
2022-09-14T07:09:43.219Z,19.00
2022-09-14T07:12:10.990Z,18.80
2022-09-14T07:14:37.831Z,18.70
2022-09-14T07:17:04.605Z,18.80
2022-09-14T07:19:30.900Z,18.80
2022-09-14T07:21:57.092Z,18.90
2022-09-14T07:24:23.348Z,19.10
2022-09-14T07:26:49.679Z,19.20
2022-09-14T07:29:18.892Z,19.20
2022-09-14T07:31:50.917Z,19.40
2022-09-14T07:34:17.474Z,19.50
2022-09-14T07:36:43.867Z,19.70
2022-09-14T07:39:14.944Z,19.40
2022-09-14T07:41:41.278Z,19.40
2022-09-14T07:44:07.810Z,19.60
2022-09-14T07:46:38.799Z,19.80
2022-09-14T07:49:05.283Z,19.80
2022-09-14T07:51:32.147Z,19.70
2022-09-14T07:54:00.162Z,19.90
2022-09-14T07:56:27.577Z,20.10
2022-09-14T07:59:03.331Z,20.10
2022-09-14T08:01:38.203Z,20.30
2022-09-14T08:04:05.694Z,20.00
2022-09-14T08:06:31.973Z,20.00
2022-09-14T08:08:58.187Z,20.00
2022-09-14T08:11:28.676Z,20.10
2022-09-14T08:13:59.409Z,20.30
2022-09-14T08:16:27.155Z,20.10
2022-09-14T08:19:03.119Z,20.30
2022-09-14T08:21:30.476Z,20.80
2022-09-14T08:23:57.430Z,20.70
2022-09-14T08:26:24.957Z,20.80
2022-09-14T08:28:51.514Z,20.50
2022-09-14T08:31:23.760Z,20.70
2022-09-14T08:33:52.611Z,20.40
2022-09-14T08:36:19.921Z,20.70
2022-09-14T08:38:46.661Z,20.70
2022-09-14T08:41:27.068Z,20.50
2022-09-14T08:43:53.760Z,20.30
2022-09-14T08:46:34.442Z,20.20
2022-09-14T08:49:01.989Z,20.20
2022-09-14T08:51:28.202Z,20.00
2022-09-14T08:53:56.567Z,20.10
2022-09-14T08:56:33.698Z,20.20
2022-09-14T08:59:10.492Z,20.20
2022-09-14T09:06:39.366Z,20.50
2022-09-14T09:10:37.782Z,20.10
2022-09-14T09:13:04.898Z,20.40
2022-09-14T09:15:36.974Z,20.40
2022-09-14T09:19:42.223Z,20.50
2022-09-14T09:22:12.819Z,20.70
2022-09-14T09:24:40.304Z,21.20
2022-09-14T09:27:13.312Z,21.60
2022-09-14T09:29:39.534Z,22.00
2022-09-14T09:32:07.553Z,21.90
2022-09-14T09:34:33.857Z,22.00
2022-09-14T09:37:00.456Z,22.20
2022-09-14T09:39:29.140Z,22.10
2022-09-14T09:42:01.405Z,22.00
2022-09-14T09:44:28.981Z,22.00
2022-09-14T09:46:59.446Z,22.30
2022-09-14T09:49:36.236Z,22.30
2022-09-14T09:52:10.527Z,22.00
2022-09-14T09:54:37.143Z,21.70
2022-09-14T09:57:17.893Z,21.30
2022-09-14T09:59:46.081Z,21.40
2022-09-14T10:03:26.630Z,21.50
2022-09-14T10:06:04.021Z,21.60
2022-09-14T10:08:34.856Z,21.50
2022-09-14T10:11:02.620Z,21.90
2022-09-14T10:13:38.129Z,21.80
2022-09-14T10:16:07.384Z,21.80
2022-09-14T10:18:35.539Z,21.40
2022-09-14T10:21:07.499Z,21.40
2022-09-14T10:23:39.341Z,21.40
2022-09-14T10:26:39.379Z,21.90
2022-09-14T10:29:34.769Z,22.20
2022-09-14T10:32:10.774Z,22.40
2022-09-14T10:34:37.818Z,22.50
2022-09-14T10:40:52.684Z,22.30
2022-09-14T10:43:35.619Z,21.60
2022-09-14T10:46:02.347Z,21.50
2022-09-14T10:51:30.707Z,21.70
2022-09-14T10:54:39.157Z,21.70
2022-09-14T10:57:58.226Z,21.80
2022-09-14T11:00:25.880Z,21.40
2022-09-14T11:04:36.024Z,21.80
2022-09-14T11:07:21.863Z,22.30
2022-09-14T11:10:41.203Z,22.30
2022-09-14T11:15:21.208Z,22.50
2022-09-14T11:17:58.831Z,22.20
2022-09-14T11:21:51.596Z,22.20
2022-09-14T11:25:59.291Z,22.00
2022-09-14T11:28:29.287Z,22.10
2022-09-14T11:31:02.020Z,22.20
2022-09-14T11:33:48.503Z,22.30
2022-09-14T11:36:35.780Z,22.40
2022-09-14T11:41:00.188Z,22.30
2022-09-14T11:43:34.044Z,22.20
2022-09-14T11:47:48.193Z,22.30
2022-09-14T11:50:33.263Z,22.40
2022-09-14T11:53:18.157Z,22.60
2022-09-14T11:55:48.847Z,22.60
2022-09-14T11:58:26.152Z,22.60
2022-09-14T12:01:33.446Z,22.60
2022-09-14T12:04:12.000Z,22.40
2022-09-14T12:06:43.813Z,22.40
2022-09-14T12:09:44.446Z,22.40
2022-09-14T12:12:33.269Z,22.20
2022-09-14T12:15:00.332Z,22.40
2022-09-14T12:17:39.877Z,22.60
2022-09-14T12:26:57.703Z,22.60
2022-09-14T12:29:27.151Z,22.80
2022-09-14T12:32:04.495Z,23.10
2022-09-14T12:34:32.767Z,23.40
2022-09-14T12:37:09.958Z,23.50
2022-09-14T12:39:38.219Z,23.70
2022-09-14T12:44:41.818Z,23.70
2022-09-14T12:54:56.998Z,23.70
2022-09-14T12:57:51.721Z,23.80
2022-09-14T13:00:19.444Z,23.60
2022-09-14T13:03:20.287Z,23.40
2022-09-14T13:05:46.520Z,23.30
2022-09-14T13:08:13.024Z,23.10
2022-09-14T13:10:48.139Z,23.00
2022-09-14T13:13:30.732Z,22.80
2022-09-14T13:15:59.183Z,23.70
2022-09-14T13:18:37.112Z,22.40
2022-09-14T13:21:17.563Z,22.30
2022-09-14T13:23:45.826Z,22.30
2022-09-14T13:26:30.916Z,22.30
2022-09-14T13:28:58.815Z,22.50
2022-09-14T13:31:36.267Z,22.40
2022-09-14T13:34:04.345Z,22.40
2022-09-14T13:36:33.679Z,23.60
2022-09-14T13:39:01.416Z,22.40
2022-09-14T13:41:28.962Z,22.50
2022-09-14T13:43:56.474Z,22.30
2022-09-14T13:46:24.902Z,22.20
2022-09-14T13:48:52.222Z,22.00
2022-09-14T13:51:25.378Z,21.80
2022-09-14T13:53:57.197Z,21.80
2022-09-14T13:56:33.935Z,21.60
2022-09-14T13:59:22.337Z,21.50
2022-09-14T14:02:10.955Z,21.50
2022-09-14T14:04:39.384Z,21.60
2022-09-14T14:07:21.875Z,21.70
2022-09-14T14:09:57.146Z,21.70
2022-09-14T14:12:28.651Z,21.70
2022-09-14T14:15:29.373Z,21.80
2022-09-14T14:17:55.723Z,21.80
2022-09-14T14:23:14.593Z,22.00
2022-09-14T14:25:54.680Z,22.40
2022-09-14T14:28:29.014Z,22.60
2022-09-14T14:30:57.203Z,22.70
2022-09-14T14:33:23.681Z,22.70
2022-09-14T14:35:52.148Z,22.60
2022-09-14T14:38:18.965Z,22.30
2022-09-14T14:40:46.392Z,22.10
2022-09-14T14:43:25.610Z,21.90
2022-09-14T14:45:56.042Z,21.70
2022-09-14T14:48:23.872Z,21.60
2022-09-14T14:50:50.090Z,21.50
2022-09-14T14:53:16.349Z,21.40
2022-09-14T14:55:42.858Z,21.40
2022-09-14T14:58:14.005Z,21.30
2022-09-14T15:00:41.101Z,21.30
2022-09-14T15:03:07.431Z,21.30
2022-09-14T15:05:34.746Z,21.20
2022-09-14T15:08:02.496Z,21.20
2022-09-14T15:10:30.461Z,21.10
2022-09-14T15:12:56.803Z,21.00
2022-09-14T15:15:25.035Z,20.80
2022-09-14T15:17:52.097Z,20.70
2022-09-14T15:20:19.760Z,20.70
2022-09-14T15:22:49.863Z,20.60
2022-09-14T15:25:18.165Z,20.70
2022-09-14T15:27:44.471Z,20.70
2022-09-14T15:30:12.057Z,20.70
2022-09-14T15:32:39.615Z,20.80
2022-09-14T15:35:09.961Z,20.70
2022-09-14T15:37:37.079Z,20.70
2022-09-14T15:40:05.530Z,20.60
2022-09-14T15:42:33.090Z,20.50
2022-09-14T15:44:59.912Z,20.40
2022-09-14T15:47:27.346Z,20.30
2022-09-14T15:49:54.265Z,20.20
2022-09-14T15:52:21.328Z,20.10
2022-09-14T15:54:48.680Z,20.00
2022-09-14T15:57:14.926Z,20.00
2022-09-14T15:59:41.357Z,19.90
2022-09-14T16:02:12.098Z,19.90
2022-09-14T16:04:38.804Z,19.80
2022-09-14T16:07:09.329Z,19.70
2022-09-14T16:09:39.709Z,19.70
2022-09-14T16:12:09.389Z,19.60
2022-09-14T16:14:40.224Z,19.60
2022-09-14T16:17:09.722Z,19.60
2022-09-14T16:19:36.971Z,19.60
2022-09-14T16:22:04.754Z,19.50
2022-09-14T16:24:31.365Z,19.40
2022-09-14T16:27:02.496Z,19.30
2022-09-14T16:29:29.535Z,19.20
2022-09-14T16:31:56.896Z,19.20
2022-09-14T16:34:28.248Z,19.10
2022-09-14T16:36:56.521Z,19.00
2022-09-14T16:39:29.815Z,18.90
2022-09-14T16:41:59.730Z,18.80
2022-09-14T16:44:37.898Z,18.80
2022-09-14T16:47:06.352Z,18.70
2022-09-14T16:49:33.247Z,18.60
2022-09-14T16:52:00.575Z,18.50
2022-09-14T16:54:29.315Z,18.50
2022-09-14T16:56:57.666Z,18.40
2022-09-14T16:59:26.402Z,18.30
2022-09-14T17:01:55.970Z,18.30
2022-09-14T17:04:23.823Z,18.30
2022-09-14T17:06:52.335Z,18.20
2022-09-14T17:09:20.958Z,18.20
2022-09-14T17:11:48.146Z,18.10
2022-09-14T17:14:21.327Z,18.10
2022-09-14T17:16:51.152Z,18.10
2022-09-14T17:19:18.700Z,18.00
2022-09-14T17:21:48.860Z,18.00
2022-09-14T17:24:16.183Z,17.90
2022-09-14T17:26:44.814Z,17.90
2022-09-14T17:29:12.209Z,17.80
2022-09-14T17:31:41.069Z,17.80
2022-09-14T17:34:13.261Z,17.80
2022-09-14T17:36:44.162Z,17.80
2022-09-14T17:39:12.211Z,17.70
2022-09-14T17:41:41.546Z,17.70
2022-09-14T17:44:10.891Z,17.70
2022-09-14T17:46:48.250Z,17.60
2022-09-14T17:49:20.803Z,17.60
2022-09-14T17:51:48.098Z,17.60
2022-09-14T17:54:14.520Z,17.60
2022-09-14T17:56:41.830Z,17.60
2022-09-14T17:59:15.899Z,17.60
2022-09-14T18:01:43.036Z,17.60
2022-09-14T18:04:14.308Z,17.60
2022-09-14T18:06:42.421Z,17.50
2022-09-14T18:09:13.205Z,17.50
2022-09-14T18:11:41.257Z,17.50
2022-09-14T18:14:15.264Z,17.50
2022-09-14T18:16:43.443Z,17.40
2022-09-14T18:19:11.222Z,17.50
2022-09-14T18:21:39.011Z,17.50
2022-09-14T18:24:06.868Z,17.40
2022-09-14T18:26:35.552Z,17.50
2022-09-14T18:29:04.420Z,17.50
2022-09-14T18:31:31.391Z,17.50
2022-09-14T18:34:00.087Z,17.50
2022-09-14T18:36:29.205Z,17.50
2022-09-14T18:38:57.209Z,17.40
2022-09-14T18:41:24.775Z,17.50
2022-09-14T18:43:52.730Z,17.50
2022-09-14T18:46:21.627Z,17.50
2022-09-14T18:48:54.112Z,17.40
2022-09-14T18:51:21.653Z,17.40
2022-09-14T18:53:50.836Z,17.40
2022-09-14T18:56:20.577Z,17.40
2022-09-14T18:58:46.947Z,17.50
2022-09-14T19:01:13.983Z,17.50
2022-09-14T19:03:41.884Z,17.50
2022-09-14T19:06:11.306Z,17.50
2022-09-14T19:08:38.352Z,17.50
2022-09-14T19:11:11.875Z,17.50
2022-09-14T19:13:39.308Z,17.50
2022-09-14T19:16:11.255Z,17.50
2022-09-14T19:18:38.925Z,17.50
2022-09-14T19:21:13.044Z,17.50
2022-09-14T19:23:41.817Z,17.60
2022-09-14T19:26:32.930Z,17.60
2022-09-14T19:29:03.326Z,17.60
2022-09-14T19:31:31.418Z,17.60
2022-09-14T19:34:02.718Z,17.60
2022-09-14T19:36:34.433Z,17.70
2022-09-14T19:39:02.850Z,17.70
2022-09-14T19:41:37.806Z,17.70
2022-09-14T19:44:07.474Z,17.70
2022-09-14T19:46:39.710Z,17.60
2022-09-14T19:49:21.737Z,17.70
2022-09-14T19:51:51.749Z,17.60
2022-09-14T19:54:19.207Z,17.70
2022-09-14T19:56:46.239Z,17.60
2022-09-14T19:59:14.864Z,17.60
2022-09-14T20:01:42.475Z,17.60
2022-09-14T20:04:10.179Z,17.60
2022-09-14T20:06:40.068Z,17.60
2022-09-14T20:09:09.227Z,17.60
2022-09-14T20:11:40.809Z,17.60
2022-09-14T20:14:14.311Z,17.50
2022-09-14T20:16:51.433Z,17.60
2022-09-14T20:19:21.031Z,17.50
2022-09-14T20:21:48.725Z,17.90
2022-09-14T20:24:25.146Z,17.50
2022-09-14T20:26:59.921Z,17.50
2022-09-14T20:29:31.243Z,17.50
2022-09-14T20:32:00.501Z,17.50
2022-09-14T20:34:28.892Z,17.50
2022-09-14T20:36:56.550Z,17.40
2022-09-14T20:39:27.066Z,17.50
2022-09-14T20:41:54.685Z,17.50
2022-09-14T20:44:23.946Z,17.50
2022-09-14T20:46:50.663Z,17.50
2022-09-14T20:49:24.670Z,17.50
2022-09-14T20:51:54.375Z,17.50
2022-09-14T20:54:22.265Z,17.50
2022-09-14T20:56:49.510Z,17.50
2022-09-14T20:59:20.643Z,17.50
2022-09-14T21:01:53.333Z,17.50
2022-09-14T21:04:21.947Z,17.50
2022-09-14T21:06:53.754Z,17.60
2022-09-14T21:09:28.542Z,17.50
2022-09-14T21:11:55.529Z,17.50
2022-09-14T21:14:22.290Z,17.50
2022-09-14T21:16:54.401Z,17.60
2022-09-14T21:19:26.534Z,17.60
2022-09-14T21:21:53.347Z,17.50
2022-09-14T21:24:21.003Z,17.60
2022-09-14T21:26:48.593Z,17.60
2022-09-14T21:29:18.185Z,17.60
2022-09-14T21:31:44.807Z,17.50
2022-09-14T21:34:14.720Z,17.50
2022-09-14T21:36:44.037Z,17.50
2022-09-14T21:39:16.678Z,17.60
2022-09-14T21:41:44.685Z,17.60
2022-09-14T21:44:14.985Z,17.60
2022-09-14T21:46:42.133Z,17.60
2022-09-14T21:49:16.492Z,17.70
2022-09-14T21:51:43.830Z,17.70
2022-09-14T21:54:12.899Z,17.70
2022-09-14T21:56:41.073Z,17.70
2022-09-14T21:59:10.703Z,17.70
2022-09-14T22:01:37.649Z,17.70
2022-09-14T22:04:03.932Z,17.70
2022-09-14T22:06:31.186Z,17.80
2022-09-14T22:09:00.649Z,17.80
2022-09-14T22:11:33.159Z,17.80
2022-09-14T22:14:05.173Z,17.80
2022-09-14T22:16:34.444Z,17.80
2022-09-14T22:19:05.826Z,17.80
2022-09-14T22:21:35.808Z,17.80
2022-09-14T22:24:04.104Z,17.80
2022-09-14T22:26:31.546Z,17.80
2022-09-14T22:28:58.485Z,17.80
2022-09-14T22:31:25.786Z,17.80
2022-09-14T22:33:55.215Z,17.80
2022-09-14T22:36:22.284Z,18.10
2022-09-14T22:38:48.514Z,17.80
2022-09-14T22:41:19.040Z,17.80
2022-09-14T22:43:45.771Z,17.80
2022-09-14T22:46:13.933Z,17.80
2022-09-14T22:48:40.199Z,17.80
2022-09-14T22:51:07.239Z,17.90
2022-09-14T22:53:34.891Z,17.90
2022-09-14T22:56:17.000Z,17.90
2022-09-14T22:58:44.031Z,17.90
2022-09-14T23:01:12.585Z,17.90
2022-09-14T23:03:38.848Z,17.90
2022-09-14T23:06:05.285Z,17.90
2022-09-14T23:08:35.193Z,17.80
2022-09-14T23:11:07.508Z,17.70
2022-09-14T23:13:38.810Z,17.70
2022-09-14T23:16:17.284Z,17.70
2022-09-14T23:18:44.536Z,17.70
2022-09-14T23:21:10.904Z,17.70
2022-09-14T23:23:40.822Z,17.60
2022-09-14T23:26:10.627Z,17.60
2022-09-14T23:28:37.473Z,17.40
2022-09-14T23:31:04.834Z,17.30
2022-09-14T23:33:31.388Z,17.30
2022-09-14T23:35:58.202Z,17.30
2022-09-14T23:38:24.720Z,17.30
2022-09-14T23:40:50.925Z,17.20
2022-09-14T23:43:18.954Z,17.20
2022-09-14T23:45:46.652Z,17.20
2022-09-14T23:48:14.330Z,17.10
2022-09-14T23:50:40.787Z,17.10
2022-09-14T23:53:07.427Z,17.00
2022-09-14T23:55:33.592Z,16.90
2022-09-14T23:57:59.757Z,16.90
